www.cux-wetter.de
Wetterdaten: Dienstag, 18.11.2014
Datum Zeit Temp. A. Feuchte A. Luftdruck Regen Wind Richtung Richtung Sonnenschein Solar Taupunkt Windchill Windben
18.11.2014 00:01 8,1 C 91 % 1011,5 hPa 0,0 l/m 19,4 km/h (3 Bft) O-SO 105 0 min 0 W/m 6,7 C 1,0 C 19,4 km/h (3 Bft)
18.11.2014 00:16 8,0 C 91 % 1011,5 hPa 0,0 l/m 14,8 km/h (3 Bft) O-SO 110 0 min 0 W/m 6,6 C 2,8 C 14,8 km/h (3 Bft)
18.11.2014 00:31 7,9 C 91 % 1011,5 hPa 0,0 l/m 15,3 km/h (3 Bft) O 85 0 min 0 W/m 6,5 C 2,5 C 15,3 km/h (3 Bft)
18.11.2014 00:46 8,0 C 91 % 1011,5 hPa 0,0 l/m 6,9 km/h (2 Bft) O-SO 115 0 min 0 W/m 6,6 C 7,6 C 6,9 km/h (2 Bft)
18.11.2014 01:01 7,9 C 91 % 1011,5 hPa 0,0 l/m 14,3 km/h (3 Bft) O-SO 110 0 min 0 W/m 6,5 C 2,9 C 14,3 km/h (3 Bft)
18.11.2014 01:16 7,9 C 91 % 1011,5 hPa 0,0 l/m 17,5 km/h (3 Bft) O 100 0 min 0 W/m 6,5 C 1,5 C 17,5 km/h (3 Bft)
18.11.2014 01:31 7,8 C 91 % 1011,5 hPa 0,0 l/m 19,3 km/h (3 Bft) O-NO 70 0 min 0 W/m 6,4 C 0,7 C 19,3 km/h (3 Bft)
18.11.2014 01:46 7,9 C 91 % 1011,5 hPa 0,0 l/m 19,3 km/h (3 Bft) O-SO 105 0 min 0 W/m 6,5 C 0,8 C 19,3 km/h (3 Bft)
18.11.2014 02:01 8,0 C 91 % 1011,5 hPa 0,0 l/m 18,5 km/h (3 Bft) O 90 0 min 0 W/m 6,6 C 1,3 C 18,5 km/h (3 Bft)
18.11.2014 02:16 8,0 C 91 % 1012,5 hPa 0,0 l/m 14,7 km/h (3 Bft) SO 125 0 min 0 W/m 6,6 C 2,8 C 14,7 km/h (3 Bft)
18.11.2014 02:31 8,0 C 91 % 1012,5 hPa 0,0 l/m 17,8 km/h (3 Bft) O 80 0 min 0 W/m 6,6 C 1,5 C 17,8 km/h (3 Bft)
18.11.2014 02:46 8,0 C 91 % 1012,5 hPa 0,0 l/m 23,0 km/h (4 Bft) O 80 0 min 0 W/m 6,6 C -0,3 C 23,0 km/h (4 Bft)
18.11.2014 03:01 8,0 C 91 % 1012,5 hPa 0,0 l/m 19,8 km/h (3 Bft) O 90 0 min 0 W/m 6,6 C 0,8 C 19,8 km/h (3 Bft)
18.11.2014 03:16 8,0 C 91 % 1012,5 hPa 0,0 l/m 21,3 km/h (4 Bft) O 90 0 min 0 W/m 6,6 C 0,3 C 21,3 km/h (4 Bft)
18.11.2014 03:31 8,0 C 91 % 1012,5 hPa 0,0 l/m 19,2 km/h (3 Bft) O-SO 105 0 min 0 W/m 6,6 C 1,0 C 19,2 km/h (3 Bft)
18.11.2014 03:46 8,0 C 90 % 1012,5 hPa 0,0 l/m 21,1 km/h (4 Bft) O 100 0 min 0 W/m 6,5 C 0,3 C 21,1 km/h (4 Bft)
18.11.2014 04:01 8,0 C 90 % 1012,5 hPa 0,0 l/m 20,5 km/h (4 Bft) O 90 0 min 0 W/m 6,5 C 0,5 C 20,5 km/h (4 Bft)
18.11.2014 04:16 8,0 C 90 % 1012,5 hPa 0,0 l/m 19,3 km/h (3 Bft) O-SO 105 0 min 0 W/m 6,5 C 1,0 C 19,3 km/h (3 Bft)
18.11.2014 04:31 8,0 C 90 % 1012,5 hPa 0,0 l/m 23,0 km/h (4 Bft) O 85 0 min 0 W/m 6,5 C -0,3 C 23,0 km/h (4 Bft)
18.11.2014 04:46 8,2 C 89 % 1012,5 hPa 0,0 l/m 18,3 km/h (3 Bft) O-SO 115 0 min 0 W/m 6,5 C 1,6 C 18,3 km/h (3 Bft)
18.11.2014 05:01 8,3 C 89 % 1012,5 hPa 0,0 l/m 20,7 km/h (4 Bft) O 90 0 min 0 W/m 6,6 C 0,9 C 20,7 km/h (4 Bft)
18.11.2014 05:16 8,4 C 89 % 1012,5 hPa 0,0 l/m 18,5 km/h (3 Bft) O-SO 110 0 min 0 W/m 6,7 C 1,8 C 18,5 km/h (3 Bft)
18.11.2014 05:31 8,4 C 89 % 1012,5 hPa 0,0 l/m 12,9 km/h (3 Bft) O 90 0 min 0 W/m 6,7 C 4,2 C 12,9 km/h (3 Bft)
18.11.2014 05:46 8,4 C 89 % 1012,5 hPa 0,0 l/m 15,4 km/h (3 Bft) O 80 0 min 0 W/m 6,7 C 3,0 C 15,4 km/h (3 Bft)
18.11.2014 06:01 8,4 C 89 % 1012,5 hPa 0,0 l/m 17,4 km/h (3 Bft) O 80 0 min 0 W/m 6,7 C 2,2 C 17,4 km/h (3 Bft)
18.11.2014 06:16 8,4 C 90 % 1012,5 hPa 0,0 l/m 14,8 km/h (3 Bft) O-SO 105 0 min 0 W/m 6,9 C 3,3 C 14,8 km/h (3 Bft)
18.11.2014 06:31 8,4 C 90 % 1011,5 hPa 0,0 l/m 19,2 km/h (3 Bft) O-NO 70 0 min 0 W/m 6,9 C 1,5 C 19,2 km/h (3 Bft)
18.11.2014 06:46 8,3 C 90 % 1011,5 hPa 0,0 l/m 18,0 km/h (3 Bft) O 100 0 min 0 W/m 6,8 C 1,8 C 18,0 km/h (3 Bft)
18.11.2014 07:01 8,3 C 90 % 1011,5 hPa 0,0 l/m 18,0 km/h (3 Bft) O-NO 70 0 min 0 W/m 6,8 C 1,8 C 18,0 km/h (3 Bft)
18.11.2014 07:16 8,4 C 90 % 1011,5 hPa 0,0 l/m 17,9 km/h (3 Bft) O 90 0 min 0 W/m 6,9 C 2,0 C 17,9 km/h (3 Bft)
18.11.2014 07:31 8,5 C 91 % 1011,5 hPa 0,0 l/m 13,5 km/h (3 Bft) O 100 0 min 0 W/m 7,1 C 4,0 C 13,5 km/h (3 Bft)
18.11.2014 07:46 8,6 C 91 % 1011,5 hPa 0,0 l/m 8,1 km/h (2 Bft) O 85 0 min 0 W/m 7,2 C 7,3 C 8,1 km/h (2 Bft)
18.11.2014 08:00 8,7 C 91 % 1012,5 hPa 0,0 l/m 16,6 km/h (3 Bft) O 85 0 min 0 W/m 7,3 C 2,9 C 16,6 km/h (3 Bft)
18.11.2014 08:15 8,7 C 91 % 1012,5 hPa 0,0 l/m 19,4 km/h (3 Bft) O 95 0 min 0 W/m 7,3 C 1,8 C 19,4 km/h (3 Bft)
18.11.2014 08:31 8,8 C 91 % 1012,5 hPa 0,0 l/m 18,5 km/h (3 Bft) O 100 0 min 0 W/m 7,4 C 2,3 C 18,5 km/h (3 Bft)
18.11.2014 08:46 8,8 C 91 % 1012,5 hPa 0,0 l/m 12,4 km/h (2 Bft) O-SO 105 0 min 0 W/m 7,4 C 4,9 C 12,4 km/h (2 Bft)
18.11.2014 09:00 8,9 C 91 % 1012,5 hPa 0,0 l/m 16,2 km/h (3 Bft) O-SO 105 0 min 0 W/m 7,5 C 3,3 C 16,2 km/h (3 Bft)
18.11.2014 09:15 9,0 C 91 % 1012,5 hPa 0,0 l/m 11,0 km/h (2 Bft) O 100 0 min 0 W/m 7,6 C 5,9 C 11,0 km/h (2 Bft)
18.11.2014 09:31 9,1 C 91 % 1012,5 hPa 0,0 l/m 16,6 km/h (3 Bft) O 95 0 min 0 W/m 7,7 C 3,4 C 16,6 km/h (3 Bft)
18.11.2014 09:46 9,2 C 91 % 1012,5 hPa 0,0 l/m 11,5 km/h (2 Bft) O 95 0 min 0 W/m 7,8 C 5,9 C 11,5 km/h (2 Bft)
18.11.2014 10:00 9,3 C 90 % 1012,5 hPa 0,0 l/m 3,0 km/h (1 Bft) O-NO 75 0 min 0 W/m 7,7 C 9,3 C 3,0 km/h (1 Bft)
18.11.2014 10:16 9,4 C 90 % 1012,5 hPa 0,0 l/m 5,8 km/h (2 Bft) O-SO 105 0 min 0 W/m 7,8 C 9,4 C 5,8 km/h (2 Bft)
18.11.2014 10:31 9,5 C 90 % 1012,5 hPa 0,0 l/m 21,3 km/h (4 Bft) O-NO 60 0 min 0 W/m 7,9 C 2,2 C 21,3 km/h (4 Bft)
18.11.2014 10:46 9,6 C 90 % 1012,5 hPa 0,0 l/m 19,5 km/h (3 Bft) O 85 0 min 0 W/m 8,0 C 2,9 C 19,5 km/h (3 Bft)
18.11.2014 11:01 9,9 C 90 % 1012,5 hPa 0,0 l/m 12,3 km/h (2 Bft) O 95 0 min 0 W/m 8,3 C 6,2 C 12,3 km/h (2 Bft)
18.11.2014 11:16 9,8 C 89 % 1012,5 hPa 0,0 l/m 15,1 km/h (3 Bft) O 95 0 min 0 W/m 8,1 C 4,8 C 15,1 km/h (3 Bft)
18.11.2014 11:31 9,8 C 89 % 1012,5 hPa 0,0 l/m 14,8 km/h (3 Bft) O 100 0 min 0 W/m 8,1 C 5,0 C 14,8 km/h (3 Bft)
18.11.2014 11:46 9,7 C 89 % 1012,5 hPa 0,0 l/m 17,0 km/h (3 Bft) O 90 0 min 0 W/m 8,0 C 4,0 C 17,0 km/h (3 Bft)
18.11.2014 12:01 9,7 C 88 % 1012,5 hPa 0,0 l/m 13,3 km/h (3 Bft) O-SO 105 0 min 0 W/m 7,8 C 5,5 C 13,3 km/h (3 Bft)
18.11.2014 12:16 9,7 C 88 % 1012,5 hPa 0,0 l/m 13,2 km/h (3 Bft) O 90 0 min 0 W/m 7,8 C 5,6 C 13,2 km/h (3 Bft)
18.11.2014 12:31 9,8 C 88 % 1012,5 hPa 0,0 l/m 16,8 km/h (3 Bft) O 85 0 min 0 W/m 7,9 C 4,2 C 16,8 km/h (3 Bft)
18.11.2014 12:46 9,7 C 88 % 1012,5 hPa 0,0 l/m 12,8 km/h (3 Bft) O 95 0 min 0 W/m 7,8 C 5,8 C 12,8 km/h (3 Bft)
18.11.2014 13:01 9,7 C 88 % 1012,5 hPa 0,0 l/m 10,1 km/h (2 Bft) O 90 0 min 0 W/m 7,8 C 7,2 C 10,1 km/h (2 Bft)
18.11.2014 13:16 9,8 C 89 % 1011,5 hPa 0,0 l/m 11,0 km/h (2 Bft) O-NO 65 0 min 0 W/m 8,1 C 6,8 C 11,0 km/h (2 Bft)
18.11.2014 13:31 9,8 C 88 % 1011,5 hPa 0,0 l/m 13,6 km/h (3 Bft) O 80 0 min 0 W/m 7,9 C 5,5 C 13,6 km/h (3 Bft)
18.11.2014 13:46 9,8 C 88 % 1011,5 hPa 0,0 l/m 15,1 km/h (3 Bft) O-NO 75 0 min 0 W/m 7,9 C 4,8 C 15,1 km/h (3 Bft)
18.11.2014 14:01 10,0 C 88 % 1011,5 hPa 0,0 l/m 14,7 km/h (3 Bft) O-NO 60 0 min 0 W/m 8,1 C 5,3 C 14,7 km/h (3 Bft)
18.11.2014 14:16 9,9 C 88 % 1011,5 hPa 0,0 l/m 14,3 km/h (3 Bft) O-NO 65 0 min 0 W/m 8,0 C 5,3 C 14,3 km/h (3 Bft)
18.11.2014 14:31 10,0 C 87 % 1011,5 hPa 0,0 l/m 16,5 km/h (3 Bft) O-SO 105 0 min 0 W/m 7,9 C 4,5 C 16,5 km/h (3 Bft)
18.11.2014 14:45 10,0 C 87 % 1011,5 hPa 0,0 l/m 12,1 km/h (2 Bft) O 90 0 min 0 W/m 7,9 C 6,5 C 12,1 km/h (2 Bft)
18.11.2014 15:01 10,0 C 87 % 1011,5 hPa 0,0 l/m 9,6 km/h (2 Bft) O 85 0 min 0 W/m 7,9 C 7,8 C 9,6 km/h (2 Bft)
18.11.2014 15:16 9,9 C 87 % 1012,5 hPa 0,0 l/m 14,5 km/h (3 Bft) O 80 0 min 0 W/m 7,8 C 5,2 C 14,5 km/h (3 Bft)
18.11.2014 15:31 9,8 C 87 % 1011,5 hPa 0,0 l/m 15,3 km/h (3 Bft) O 80 0 min 0 W/m 7,7 C 4,8 C 15,3 km/h (3 Bft)
18.11.2014 15:46 9,7 C 87 % 1011,5 hPa 0,0 l/m 15,1 km/h (3 Bft) O 80 0 min 0 W/m 7,6 C 4,7 C 15,1 km/h (3 Bft)
18.11.2014 16:01 9,6 C 87 % 1011,5 hPa 0,0 l/m 14,1 km/h (3 Bft) O 80 0 min 0 W/m 7,5 C 5,0 C 14,1 km/h (3 Bft)
18.11.2014 16:16 9,6 C 88 % 1012,5 hPa 0,0 l/m 13,3 km/h (3 Bft) O 80 0 min 0 W/m 7,7 C 5,4 C 13,3 km/h (3 Bft)
18.11.2014 16:31 9,6 C 88 % 1011,5 hPa 0,0 l/m 12,3 km/h (2 Bft) O-NO 75 0 min 0 W/m 7,7 C 5,9 C 12,3 km/h (2 Bft)
18.11.2014 16:46 9,5 C 88 % 1012,5 hPa 0,0 l/m 15,0 km/h (3 Bft) O 80 0 min 0 W/m 7,6 C 4,5 C 15,0 km/h (3 Bft)
18.11.2014 17:01 9,5 C 89 % 1012,5 hPa 0,0 l/m 10,7 km/h (2 Bft) O 85 0 min 0 W/m 7,8 C 6,6 C 10,7 km/h (2 Bft)
18.11.2014 17:16 9,5 C 89 % 1012,5 hPa 0,0 l/m 16,9 km/h (3 Bft) O 80 0 min 0 W/m 7,8 C 3,8 C 16,9 km/h (3 Bft)
18.11.2014 17:31 9,5 C 89 % 1012,5 hPa 0,0 l/m 15,4 km/h (3 Bft) O 85 0 min 0 W/m 7,8 C 4,4 C 15,4 km/h (3 Bft)
18.11.2014 17:46 9,5 C 89 % 1012,5 hPa 0,0 l/m 14,0 km/h (3 Bft) O-SO 110 0 min 0 W/m 7,8 C 5,0 C 14,0 km/h (3 Bft)
18.11.2014 18:01 9,4 C 89 % 1012,5 hPa 0,0 l/m 18,2 km/h (3 Bft) O 100 0 min 0 W/m 7,7 C 3,1 C 18,2 km/h (3 Bft)
18.11.2014 18:16 9,3 C 89 % 1012,5 hPa 0,0 l/m 15,8 km/h (3 Bft) O 80 0 min 0 W/m 7,6 C 3,9 C 15,8 km/h (3 Bft)
18.11.2014 18:31 9,2 C 88 % 1012,5 hPa 0,0 l/m 22,3 km/h (4 Bft) O 95 0 min 0 W/m 7,3 C 1,5 C 22,3 km/h (4 Bft)
18.11.2014 18:46 9,1 C 88 % 1012,5 hPa 0,0 l/m 22,5 km/h (4 Bft) O 90 0 min 0 W/m 7,2 C 1,3 C 22,5 km/h (4 Bft)
18.11.2014 19:01 9,0 C 87 % 1013,5 hPa 0,0 l/m 25,8 km/h (4 Bft) O 90 0 min 0 W/m 7,0 C 0,3 C 25,8 km/h (4 Bft)
18.11.2014 19:16 9,0 C 87 % 1013,5 hPa 0,0 l/m 25,6 km/h (4 Bft) O 95 0 min 0 W/m 7,0 C 0,3 C 25,6 km/h (4 Bft)
18.11.2014 19:30 9,0 C 87 % 1013,5 hPa 0,0 l/m 23,5 km/h (4 Bft) O-SO 110 0 min 0 W/m 7,0 C 0,9 C 23,5 km/h (4 Bft)
18.11.2014 19:46 9,0 C 87 % 1013,5 hPa 0,0 l/m 18,1 km/h (3 Bft) O 95 0 min 0 W/m 7,0 C 2,7 C 18,1 km/h (3 Bft)
18.11.2014 20:01 9,0 C 86 % 1013,5 hPa 0,0 l/m 24,2 km/h (4 Bft) O 95 0 min 0 W/m 6,8 C 0,7 C 24,2 km/h (4 Bft)
18.11.2014 20:16 8,9 C 86 % 1013,5 hPa 0,0 l/m 23,3 km/h (4 Bft) O 85 0 min 0 W/m 6,7 C 0,8 C 23,3 km/h (4 Bft)
18.11.2014 20:31 8,9 C 86 % 1013,5 hPa 0,0 l/m 30,2 km/h (5 Bft) O 85 0 min 0 W/m 6,7 C -0,9 C 30,2 km/h (5 Bft)
18.11.2014 20:46 8,9 C 86 % 1013,5 hPa 0,0 l/m 19,0 km/h (3 Bft) O 80 0 min 0 W/m 6,7 C 2,2 C 19,0 km/h (3 Bft)
18.11.2014 21:01 8,9 C 86 % 1013,5 hPa 0,0 l/m 23,3 km/h (4 Bft) O 100 0 min 0 W/m 6,7 C 0,8 C 23,3 km/h (4 Bft)
18.11.2014 21:16 8,9 C 86 % 1014,5 hPa 0,0 l/m 17,8 km/h (3 Bft) O-SO 115 0 min 0 W/m 6,7 C 2,7 C 17,8 km/h (3 Bft)
18.11.2014 21:31 8,9 C 86 % 1014,5 hPa 0,0 l/m 14,8 km/h (3 Bft) O 100 0 min 0 W/m 6,7 C 3,9 C 14,8 km/h (3 Bft)
18.11.2014 21:46 8,9 C 86 % 1014,5 hPa 0,0 l/m 14,5 km/h (3 Bft) O-NO 75 0 min 0 W/m 6,7 C 4,0 C 14,5 km/h (3 Bft)
18.11.2014 22:01 8,9 C 86 % 1014,5 hPa 0,0 l/m 14,8 km/h (3 Bft) O-SO 105 0 min 0 W/m 6,7 C 3,9 C 14,8 km/h (3 Bft)
18.11.2014 22:16 8,9 C 86 % 1014,5 hPa 0,0 l/m 14,7 km/h (3 Bft) O 80 0 min 0 W/m 6,7 C 3,9 C 14,7 km/h (3 Bft)
18.11.2014 22:31 8,9 C 86 % 1014,5 hPa 0,0 l/m 19,5 km/h (3 Bft) O-SO 105 0 min 0 W/m 6,7 C 2,0 C 19,5 km/h (3 Bft)
18.11.2014 22:46 8,9 C 86 % 1014,5 hPa 0,0 l/m 9,8 km/h (2 Bft) O 80 0 min 0 W/m 6,7 C 6,5 C 9,8 km/h (2 Bft)
18.11.2014 23:01 8,8 C 86 % 1014,5 hPa 0,0 l/m 13,9 km/h (3 Bft) NO 35 0 min 0 W/m 6,6 C 4,2 C 13,9 km/h (3 Bft)
18.11.2014 23:15 8,8 C 86 % 1014,5 hPa 0,0 l/m 8,1 km/h (2 Bft) O-NO 75 0 min 0 W/m 6,6 C 7,5 C 8,1 km/h (2 Bft)
18.11.2014 23:31 8,6 C 86 % 1014,5 hPa 0,0 l/m 9,8 km/h (2 Bft) O 80 0 min 0 W/m 6,4 C 6,2 C 9,8 km/h (2 Bft)
18.11.2014 23:46 8,6 C 86 % 1014,5 hPa 0,0 l/m 12,8 km/h (3 Bft) O 80 0 min 0 W/m 6,4 C 4,5 C 12,8 km/h (3 Bft)
_ Min-Zeit 01:31 20:01 00:01 - 10:00 - - - - 23:31 20:31 10:00
Minimum _ 7,8 C 86 % 1011,5 hPa - 3,0 km/h (1 Bft) - - - - 6,4 C -0,9 C 3,0 km/h (1 Bft)
_ Max-Zeit 14:01 00:01 21:16 00:01 20:31 - - 00:01 00:01 11:01 10:16 20:31
Maximum _ 10,0 C 91 % 1014,5 hPa 0,0 l/m 30,2 km/h
O (5 Bft)
- - 0 min 0 W/m 8,3 C 9,4 C 30,2 km/h
O (5 Bft)
Durchschnitt _ 8,9 C 89 % 1012,6 hPa #0,0 l/m 16,2 km/h (3 Bft) O - #0 min. 0 W/m 7,2 C 3,5 C 16,2 km/h (3 Bft)
copyright by Holger Just